sensor_id;sensor_type;location;lat;lon;timestamp;temperature;humidity
8463;DHT22;4268;52.506;13.462;2023-07-30T00:01:53;18.00;99.90
8463;DHT22;4268;52.506;13.462;2023-07-30T00:04:19;18.00;99.90
8463;DHT22;4268;52.506;13.462;2023-07-30T00:06:44;17.90;99.90
8463;DHT22;4268;52.506;13.462;2023-07-30T00:09:10;17.90;99.90
8463;DHT22;4268;52.506;13.462;2023-07-30T00:11:35;17.90;99.90
8463;DHT22;4268;52.506;13.462;2023-07-30T00:14:01;17.90;99.90
8463;DHT22;4268;52.506;13.462;2023-07-30T00:16:26;17.90;99.90
8463;DHT22;4268;52.506;13.462;2023-07-30T00:18:52;17.80;99.90
8463;DHT22;4268;52.506;13.462;2023-07-30T00:21:17;16.80;99.90
8463;DHT22;4268;52.506;13.462;2023-07-30T00:23:43;17.80;99.90
8463;DHT22;4268;52.506;13.462;2023-07-30T00:26:08;17.70;99.90
8463;DHT22;4268;52.506;13.462;2023-07-30T00:28:34;17.70;99.90
8463;DHT22;4268;52.506;13.462;2023-07-30T00:30:59;17.70;99.90
8463;DHT22;4268;52.506;13.462;2023-07-30T00:33:25;17.70;99.90
8463;DHT22;4268;52.506;13.462;2023-07-30T00:35:51;17.80;99.90
8463;DHT22;4268;52.506;13.462;2023-07-30T00:38:17;17.70;99.90
8463;DHT22;4268;52.506;13.462;2023-07-30T00:40:43;17.70;99.90
8463;DHT22;4268;52.506;13.462;2023-07-30T00:43:09;17.70;99.90
8463;DHT22;4268;52.506;13.462;2023-07-30T00:45:35;17.70;99.90
8463;DHT22;4268;52.506;13.462;2023-07-30T00:48:01;17.60;99.90
8463;DHT22;4268;52.506;13.462;2023-07-30T00:50:26;17.60;99.90
8463;DHT22;4268;52.506;13.462;2023-07-30T00:52:52;17.60;99.90
8463;DHT22;4268;52.506;13.462;2023-07-30T00:55:18;17.60;99.90
8463;DHT22;4268;52.506;13.462;2023-07-30T00:57:44;17.60;99.90
8463;DHT22;4268;52.506;13.462;2023-07-30T01:00:11;17.60;99.90
8463;DHT22;4268;52.506;13.462;2023-07-30T01:02:36;17.60;99.90
8463;DHT22;4268;52.506;13.462;2023-07-30T01:05:02;17.60;99.90
8463;DHT22;4268;52.506;13.462;2023-07-30T01:07:31;17.50;99.90
8463;DHT22;4268;52.506;13.462;2023-07-30T01:09:56;17.50;99.90
8463;DHT22;4268;52.506;13.462;2023-07-30T01:12:23;17.50;99.90
8463;DHT22;4268;52.506;13.462;2023-07-30T01:14:49;17.50;99.90
8463;DHT22;4268;52.506;13.462;2023-07-30T01:17:15;17.40;99.90
8463;DHT22;4268;52.506;13.462;2023-07-30T01:19:41;17.40;99.90
8463;DHT22;4268;52.506;13.462;2023-07-30T01:22:07;17.40;99.90
8463;DHT22;4268;52.506;13.462;2023-07-30T01:24:32;17.40;99.90
8463;DHT22;4268;52.506;13.462;2023-07-30T01:27:04;17.40;99.90
8463;DHT22;4268;52.506;13.462;2023-07-30T01:29:40;17.40;99.90
8463;DHT22;4268;52.506;13.462;2023-07-30T01:32:09;17.40;99.90
8463;DHT22;4268;52.506;13.462;2023-07-30T01:34:37;17.40;99.90
8463;DHT22;4268;52.506;13.462;2023-07-30T01:37:05;17.40;99.90
8463;DHT22;4268;52.506;13.462;2023-07-30T01:39:33;17.30;99.90
8463;DHT22;4268;52.506;13.462;2023-07-30T01:42:01;17.30;99.90
8463;DHT22;4268;52.506;13.462;2023-07-30T01:44:27;17.30;99.90
8463;DHT22;4268;52.506;13.462;2023-07-30T01:46:53;17.20;99.90
8463;DHT22;4268;52.506;13.462;2023-07-30T01:49:18;17.20;99.90
8463;DHT22;4268;52.506;13.462;2023-07-30T01:51:43;17.20;99.90
8463;DHT22;4268;52.506;13.462;2023-07-30T01:54:09;17.20;99.90
8463;DHT22;4268;52.506;13.462;2023-07-30T01:56:34;17.20;99.90
8463;DHT22;4268;52.506;13.462;2023-07-30T01:59:00;17.20;99.90
8463;DHT22;4268;52.506;13.462;2023-07-30T02:01:25;17.20;99.90
8463;DHT22;4268;52.506;13.462;2023-07-30T02:03:51;17.20;99.90
8463;DHT22;4268;52.506;13.462;2023-07-30T02:06:16;17.20;99.90
8463;DHT22;4268;52.506;13.462;2023-07-30T02:08:42;17.20;99.90
8463;DHT22;4268;52.506;13.462;2023-07-30T02:11:07;17.20;99.90
8463;DHT22;4268;52.506;13.462;2023-07-30T02:13:33;17.10;99.90
8463;DHT22;4268;52.506;13.462;2023-07-30T02:15:58;17.00;99.90
8463;DHT22;4268;52.506;13.462;2023-07-30T02:18:23;17.00;99.90
8463;DHT22;4268;52.506;13.462;2023-07-30T02:20:49;17.10;99.90
8463;DHT22;4268;52.506;13.462;2023-07-30T02:23:15;17.10;99.90
8463;DHT22;4268;52.506;13.462;2023-07-30T02:25:43;17.10;99.90
8463;DHT22;4268;52.506;13.462;2023-07-30T02:28:09;17.10;99.90
8463;DHT22;4268;52.506;13.462;2023-07-30T02:30:34;16.90;99.90
8463;DHT22;4268;52.506;13.462;2023-07-30T02:33:00;17.00;99.90
8463;DHT22;4268;52.506;13.462;2023-07-30T02:35:26;16.90;99.90
8463;DHT22;4268;52.506;13.462;2023-07-30T02:37:51;16.90;99.90
8463;DHT22;4268;52.506;13.462;2023-07-30T02:40:17;16.90;99.90
8463;DHT22;4268;52.506;13.462;2023-07-30T02:42:42;16.90;99.90
8463;DHT22;4268;52.506;13.462;2023-07-30T02:45:08;16.80;99.90
8463;DHT22;4268;52.506;13.462;2023-07-30T02:47:33;16.90;99.90
8463;DHT22;4268;52.506;13.462;2023-07-30T02:49:59;16.90;99.90
8463;DHT22;4268;52.506;13.462;2023-07-30T02:52:24;16.90;99.90
8463;DHT22;4268;52.506;13.462;2023-07-30T02:54:50;16.80;99.90
8463;DHT22;4268;52.506;13.462;2023-07-30T02:57:15;16.90;99.90
8463;DHT22;4268;52.506;13.462;2023-07-30T02:59:41;16.80;99.90
8463;DHT22;4268;52.506;13.462;2023-07-30T03:02:06;16.80;99.90
8463;DHT22;4268;52.506;13.462;2023-07-30T03:04:32;16.70;99.90
8463;DHT22;4268;52.506;13.462;2023-07-30T03:06:58;16.70;99.90
8463;DHT22;4268;52.506;13.462;2023-07-30T03:09:23;16.80;99.90
8463;DHT22;4268;52.506;13.462;2023-07-30T03:11:49;16.80;99.90
8463;DHT22;4268;52.506;13.462;2023-07-30T03:14:15;16.70;99.90
8463;DHT22;4268;52.506;13.462;2023-07-30T03:16:41;16.80;99.90
8463;DHT22;4268;52.506;13.462;2023-07-30T03:19:06;16.80;99.90
8463;DHT22;4268;52.506;13.462;2023-07-30T03:21:32;16.90;99.90
8463;DHT22;4268;52.506;13.462;2023-07-30T03:23:57;16.90;99.90
8463;DHT22;4268;52.506;13.462;2023-07-30T03:26:23;16.80;99.90
8463;DHT22;4268;52.506;13.462;2023-07-30T03:28:48;16.80;99.90
8463;DHT22;4268;52.506;13.462;2023-07-30T03:31:14;16.80;99.90
8463;DHT22;4268;52.506;13.462;2023-07-30T03:33:40;16.70;99.90
8463;DHT22;4268;52.506;13.462;2023-07-30T03:36:09;16.80;99.90
8463;DHT22;4268;52.506;13.462;2023-07-30T03:38:35;16.80;99.90
8463;DHT22;4268;52.506;13.462;2023-07-30T03:41:00;16.90;99.90
8463;DHT22;4268;52.506;13.462;2023-07-30T03:43:26;16.80;99.90
8463;DHT22;4268;52.506;13.462;2023-07-30T03:45:51;16.80;99.90
8463;DHT22;4268;52.506;13.462;2023-07-30T03:48:17;16.80;99.90
8463;DHT22;4268;52.506;13.462;2023-07-30T03:50:42;16.90;99.90
8463;DHT22;4268;52.506;13.462;2023-07-30T03:53:08;16.90;99.90
8463;DHT22;4268;52.506;13.462;2023-07-30T03:55:33;16.90;99.90
8463;DHT22;4268;52.506;13.462;2023-07-30T03:57:58;16.90;99.90
8463;DHT22;4268;52.506;13.462;2023-07-30T04:00:24;16.90;99.90
8463;DHT22;4268;52.506;13.462;2023-07-30T04:02:49;16.90;99.90
8463;DHT22;4268;52.506;13.462;2023-07-30T04:05:15;17.00;99.90
8463;DHT22;4268;52.506;13.462;2023-07-30T04:07:40;17.00;99.90
8463;DHT22;4268;52.506;13.462;2023-07-30T04:10:06;17.00;99.90
8463;DHT22;4268;52.506;13.462;2023-07-30T04:12:32;17.10;99.90
8463;DHT22;4268;52.506;13.462;2023-07-30T04:14:57;17.00;99.90
8463;DHT22;4268;52.506;13.462;2023-07-30T04:17:23;17.00;99.90
8463;DHT22;4268;52.506;13.462;2023-07-30T04:19:48;17.10;99.90
8463;DHT22;4268;52.506;13.462;2023-07-30T04:22:13;17.10;99.90
8463;DHT22;4268;52.506;13.462;2023-07-30T04:24:39;17.30;99.90
8463;DHT22;4268;52.506;13.462;2023-07-30T04:27:05;17.30;99.90
8463;DHT22;4268;52.506;13.462;2023-07-30T04:29:30;17.40;99.90
8463;DHT22;4268;52.506;13.462;2023-07-30T04:31:56;17.40;99.90
8463;DHT22;4268;52.506;13.462;2023-07-30T04:34:22;17.40;99.90
8463;DHT22;4268;52.506;13.462;2023-07-30T04:36:47;17.50;99.90
8463;DHT22;4268;52.506;13.462;2023-07-30T04:39:12;17.40;99.90
8463;DHT22;4268;52.506;13.462;2023-07-30T04:41:38;17.40;99.90
8463;DHT22;4268;52.506;13.462;2023-07-30T04:44:04;17.40;99.90
8463;DHT22;4268;52.506;13.462;2023-07-30T04:46:29;17.40;99.90
8463;DHT22;4268;52.506;13.462;2023-07-30T04:48:55;17.50;99.90
8463;DHT22;4268;52.506;13.462;2023-07-30T04:51:20;17.50;99.90
8463;DHT22;4268;52.506;13.462;2023-07-30T04:53:46;17.50;99.90
8463;DHT22;4268;52.506;13.462;2023-07-30T04:56:11;17.50;99.90
8463;DHT22;4268;52.506;13.462;2023-07-30T04:58:37;17.90;99.90
8463;DHT22;4268;52.506;13.462;2023-07-30T05:01:02;17.60;99.90
8463;DHT22;4268;52.506;13.462;2023-07-30T05:03:28;17.60;99.90
8463;DHT22;4268;52.506;13.462;2023-07-30T05:05:53;17.60;99.90
8463;DHT22;4268;52.506;13.462;2023-07-30T05:08:19;17.60;99.90
8463;DHT22;4268;52.506;13.462;2023-07-30T05:10:44;17.70;99.90
8463;DHT22;4268;52.506;13.462;2023-07-30T05:13:10;17.80;99.90
8463;DHT22;4268;52.506;13.462;2023-07-30T05:15:38;17.90;99.90
8463;DHT22;4268;52.506;13.462;2023-07-30T05:18:03;17.90;99.90
8463;DHT22;4268;52.506;13.462;2023-07-30T05:20:29;18.00;99.90
8463;DHT22;4268;52.506;13.462;2023-07-30T05:22:54;18.00;99.90
8463;DHT22;4268;52.506;13.462;2023-07-30T05:25:20;18.10;99.90
8463;DHT22;4268;52.506;13.462;2023-07-30T05:27:45;18.20;99.90
8463;DHT22;4268;52.506;13.462;2023-07-30T05:30:11;18.20;99.90
8463;DHT22;4268;52.506;13.462;2023-07-30T05:32:37;18.40;99.90
8463;DHT22;4268;52.506;13.462;2023-07-30T05:35:02;18.50;99.90
8463;DHT22;4268;52.506;13.462;2023-07-30T05:37:28;18.60;99.90
8463;DHT22;4268;52.506;13.462;2023-07-30T05:39:53;18.80;99.90
8463;DHT22;4268;52.506;13.462;2023-07-30T05:42:18;19.00;99.90
8463;DHT22;4268;52.506;13.462;2023-07-30T05:44:44;19.30;99.90
8463;DHT22;4268;52.506;13.462;2023-07-30T05:47:09;19.40;99.90
8463;DHT22;4268;52.506;13.462;2023-07-30T05:49:35;19.60;99.90
8463;DHT22;4268;52.506;13.462;2023-07-30T05:52:00;19.80;99.90
8463;DHT22;4268;52.506;13.462;2023-07-30T05:54:26;19.90;99.90
8463;DHT22;4268;52.506;13.462;2023-07-30T05:56:51;20.00;99.90
8463;DHT22;4268;52.506;13.462;2023-07-30T05:59:17;20.20;99.90
8463;DHT22;4268;52.506;13.462;2023-07-30T06:01:42;20.10;99.90
8463;DHT22;4268;52.506;13.462;2023-07-30T06:04:08;20.10;99.90
8463;DHT22;4268;52.506;13.462;2023-07-30T06:06:33;20.10;99.90
8463;DHT22;4268;52.506;13.462;2023-07-30T06:08:59;20.10;99.90
8463;DHT22;4268;52.506;13.462;2023-07-30T06:11:25;20.00;99.90
8463;DHT22;4268;52.506;13.462;2023-07-30T06:13:50;20.00;99.90
8463;DHT22;4268;52.506;13.462;2023-07-30T06:16:17;20.10;99.90
8463;DHT22;4268;52.506;13.462;2023-07-30T06:18:43;20.30;99.90
8463;DHT22;4268;52.506;13.462;2023-07-30T06:21:08;20.70;99.90
8463;DHT22;4268;52.506;13.462;2023-07-30T06:23:34;21.80;99.90
8463;DHT22;4268;52.506;13.462;2023-07-30T06:25:59;23.20;99.90
8463;DHT22;4268;52.506;13.462;2023-07-30T06:28:25;23.80;99.90
8463;DHT22;4268;52.506;13.462;2023-07-30T06:30:50;23.60;99.90
8463;DHT22;4268;52.506;13.462;2023-07-30T06:33:16;23.30;99.90
8463;DHT22;4268;52.506;13.462;2023-07-30T06:35:41;22.90;99.90
8463;DHT22;4268;52.506;13.462;2023-07-30T06:38:08;22.50;99.90
8463;DHT22;4268;52.506;13.462;2023-07-30T06:40:34;22.30;99.90
8463;DHT22;4268;52.506;13.462;2023-07-30T06:42:59;22.20;99.90
8463;DHT22;4268;52.506;13.462;2023-07-30T06:45:25;22.30;99.90
8463;DHT22;4268;52.506;13.462;2023-07-30T06:47:50;22.80;99.90
8463;DHT22;4268;52.506;13.462;2023-07-30T06:50:16;23.10;99.90
8463;DHT22;4268;52.506;13.462;2023-07-30T06:52:41;23.50;99.90
8463;DHT22;4268;52.506;13.462;2023-07-30T06:55:07;23.90;99.90
8463;DHT22;4268;52.506;13.462;2023-07-30T06:57:33;23.80;99.90
8463;DHT22;4268;52.506;13.462;2023-07-30T06:59:58;23.50;99.90
8463;DHT22;4268;52.506;13.462;2023-07-30T07:02:24;23.10;99.90
8463;DHT22;4268;52.506;13.462;2023-07-30T07:04:49;22.80;99.90
8463;DHT22;4268;52.506;13.462;2023-07-30T07:07:15;22.70;99.90
8463;DHT22;4268;52.506;13.462;2023-07-30T07:09:41;22.70;99.90
8463;DHT22;4268;52.506;13.462;2023-07-30T07:12:07;23.10;99.90
8463;DHT22;4268;52.506;13.462;2023-07-30T07:14:32;23.90;99.90
8463;DHT22;4268;52.506;13.462;2023-07-30T07:16:58;24.50;99.90
8463;DHT22;4268;52.506;13.462;2023-07-30T07:19:24;25.00;99.90
8463;DHT22;4268;52.506;13.462;2023-07-30T07:21:49;25.40;99.90
8463;DHT22;4268;52.506;13.462;2023-07-30T07:24:15;25.30;99.90
8463;DHT22;4268;52.506;13.462;2023-07-30T07:26:41;25.00;99.90
8463;DHT22;4268;52.506;13.462;2023-07-30T07:29:06;24.70;99.90
8463;DHT22;4268;52.506;13.462;2023-07-30T07:31:32;25.10;99.90
8463;DHT22;4268;52.506;13.462;2023-07-30T07:33:58;25.10;99.90
8463;DHT22;4268;52.506;13.462;2023-07-30T07:36:23;25.50;99.90
8463;DHT22;4268;52.506;13.462;2023-07-30T07:38:49;25.80;99.90
8463;DHT22;4268;52.506;13.462;2023-07-30T07:41:15;25.90;99.90
8463;DHT22;4268;52.506;13.462;2023-07-30T07:43:42;26.00;99.90
8463;DHT22;4268;52.506;13.462;2023-07-30T07:46:07;26.20;99.90
8463;DHT22;4268;52.506;13.462;2023-07-30T07:48:39;26.40;99.90
8463;DHT22;4268;52.506;13.462;2023-07-30T07:51:05;26.40;99.90
8463;DHT22;4268;52.506;13.462;2023-07-30T07:53:31;26.20;99.90
8463;DHT22;4268;52.506;13.462;2023-07-30T07:55:56;25.90;99.90
8463;DHT22;4268;52.506;13.462;2023-07-30T07:58:22;25.90;99.90
8463;DHT22;4268;52.506;13.462;2023-07-30T08:00:47;26.30;99.90
8463;DHT22;4268;52.506;13.462;2023-07-30T08:03:13;26.70;99.90
8463;DHT22;4268;52.506;13.462;2023-07-30T08:05:38;27.10;99.90
8463;DHT22;4268;52.506;13.462;2023-07-30T08:08:04;27.30;99.60
8463;DHT22;4268;52.506;13.462;2023-07-30T08:10:29;27.50;98.50
8463;DHT22;4268;52.506;13.462;2023-07-30T08:12:55;27.30;98.20
8463;DHT22;4268;52.506;13.462;2023-07-30T08:15:20;27.00;98.60
8463;DHT22;4268;52.506;13.462;2023-07-30T08:17:47;26.60;98.90
8463;DHT22;4268;52.506;13.462;2023-07-30T08:20:12;26.60;99.30
8463;DHT22;4268;52.506;13.462;2023-07-30T08:22:38;26.40;99.70
8463;DHT22;4268;52.506;13.462;2023-07-30T08:25:03;25.90;99.60
8463;DHT22;4268;52.506;13.462;2023-07-30T08:27:30;25.30;99.90
8463;DHT22;4268;52.506;13.462;2023-07-30T08:29:56;25.20;99.90
8463;DHT22;4268;52.506;13.462;2023-07-30T08:32:22;25.10;99.90
8463;DHT22;4268;52.506;13.462;2023-07-30T08:34:47;25.30;99.90
8463;DHT22;4268;52.506;13.462;2023-07-30T08:37:12;25.60;99.90
8463;DHT22;4268;52.506;13.462;2023-07-30T08:39:38;25.80;99.70
8463;DHT22;4268;52.506;13.462;2023-07-30T08:42:04;25.80;99.10
8463;DHT22;4268;52.506;13.462;2023-07-30T08:44:29;26.00;98.70
8463;DHT22;4268;52.506;13.462;2023-07-30T08:46:55;26.30;98.30
8463;DHT22;4268;52.506;13.462;2023-07-30T08:49:20;26.50;97.70
8463;DHT22;4268;52.506;13.462;2023-07-30T08:51:48;26.50;97.70
8463;DHT22;4268;52.506;13.462;2023-07-30T08:54:17;26.40;97.60
8463;DHT22;4268;52.506;13.462;2023-07-30T08:56:43;26.30;96.20
8463;DHT22;4268;52.506;13.462;2023-07-30T08:59:08;26.10;96.50
8463;DHT22;4268;52.506;13.462;2023-07-30T09:01:37;25.80;96.70
8463;DHT22;4268;52.506;13.462;2023-07-30T09:04:04;25.60;96.50
8463;DHT22;4268;52.506;13.462;2023-07-30T09:06:30;25.50;97.00
8463;DHT22;4268;52.506;13.462;2023-07-30T09:08:57;25.50;97.40
8463;DHT22;4268;52.506;13.462;2023-07-30T09:11:25;25.60;97.00
8463;DHT22;4268;52.506;13.462;2023-07-30T09:13:53;25.70;96.70
8463;DHT22;4268;52.506;13.462;2023-07-30T09:16:24;25.60;96.00
8463;DHT22;4268;52.506;13.462;2023-07-30T09:18:50;25.50;96.80
8463;DHT22;4268;52.506;13.462;2023-07-30T09:21:15;25.70;97.30
8463;DHT22;4268;52.506;13.462;2023-07-30T09:23:46;25.70;95.90
8463;DHT22;4268;52.506;13.462;2023-07-30T09:26:12;25.60;95.40
8463;DHT22;4268;52.506;13.462;2023-07-30T09:28:38;25.30;95.40
8463;DHT22;4268;52.506;13.462;2023-07-30T09:31:07;25.30;94.60
8463;DHT22;4268;52.506;13.462;2023-07-30T09:33:40;25.10;94.40
8463;DHT22;4268;52.506;13.462;2023-07-30T09:36:07;25.00;94.90
8463;DHT22;4268;52.506;13.462;2023-07-30T09:38:39;24.60;95.40
8463;DHT22;4268;52.506;13.462;2023-07-30T09:41:05;24.30;95.80
8463;DHT22;4268;52.506;13.462;2023-07-30T09:43:34;24.10;96.20
8463;DHT22;4268;52.506;13.462;2023-07-30T09:46:04;24.00;95.60
8463;DHT22;4268;52.506;13.462;2023-07-30T09:48:34;24.00;95.80
8463;DHT22;4268;52.506;13.462;2023-07-30T09:51:04;24.10;95.30
8463;DHT22;4268;52.506;13.462;2023-07-30T09:53:31;24.30;95.30
8463;DHT22;4268;52.506;13.462;2023-07-30T09:56:04;24.50;95.20
8463;DHT22;4268;52.506;13.462;2023-07-30T09:58:31;24.70;94.60
8463;DHT22;4268;52.506;13.462;2023-07-30T10:01:00;24.90;94.60
8463;DHT22;4268;52.506;13.462;2023-07-30T10:03:27;25.20;94.20
8463;DHT22;4268;52.506;13.462;2023-07-30T10:05:57;25.30;93.80
8463;DHT22;4268;52.506;13.462;2023-07-30T10:08:26;25.60;93.80
8463;DHT22;4268;52.506;13.462;2023-07-30T10:10:54;25.60;93.10
8463;DHT22;4268;52.506;13.462;2023-07-30T10:13:21;25.40;91.70
8463;DHT22;4268;52.506;13.462;2023-07-30T10:15:47;25.10;92.50
8463;DHT22;4268;52.506;13.462;2023-07-30T10:18:13;25.40;92.80
8463;DHT22;4268;52.506;13.462;2023-07-30T10:20:39;24.80;92.90
8463;DHT22;4268;52.506;13.462;2023-07-30T10:23:05;24.60;92.60
8463;DHT22;4268;52.506;13.462;2023-07-30T10:25:45;24.30;93.10
8463;DHT22;4268;52.506;13.462;2023-07-30T10:30:59;25.00;93.00
8463;DHT22;4268;52.506;13.462;2023-07-30T10:33:44;25.80;92.50
8463;DHT22;4268;52.506;13.462;2023-07-30T10:36:10;24.50;92.40
8463;DHT22;4268;52.506;13.462;2023-07-30T10:38:36;23.80;91.30
8463;DHT22;4268;52.506;13.462;2023-07-30T10:41:02;24.40;91.20
8463;DHT22;4268;52.506;13.462;2023-07-30T10:43:40;24.50;90.80
8463;DHT22;4268;52.506;13.462;2023-07-30T10:46:06;24.80;90.90
8463;DHT22;4268;52.506;13.462;2023-07-30T10:48:33;24.90;91.20
8463;DHT22;4268;52.506;13.462;2023-07-30T10:51:00;25.20;90.80
8463;DHT22;4268;52.506;13.462;2023-07-30T10:53:26;25.20;90.30
8463;DHT22;4268;52.506;13.462;2023-07-30T10:55:53;25.20;90.00
8463;DHT22;4268;52.506;13.462;2023-07-30T10:58:20;25.10;90.30
8463;DHT22;4268;52.506;13.462;2023-07-30T11:00:49;24.90;90.50
8463;DHT22;4268;52.506;13.462;2023-07-30T11:03:14;24.70;90.80
8463;DHT22;4268;52.506;13.462;2023-07-30T11:05:40;24.50;91.20
8463;DHT22;4268;52.506;13.462;2023-07-30T11:08:05;24.40;91.40
8463;DHT22;4268;52.506;13.462;2023-07-30T11:10:31;24.30;91.00
8463;DHT22;4268;52.506;13.462;2023-07-30T11:12:57;24.60;92.00
8463;DHT22;4268;52.506;13.462;2023-07-30T11:15:24;24.80;91.40
8463;DHT22;4268;52.506;13.462;2023-07-30T11:17:52;25.20;90.60
8463;DHT22;4268;52.506;13.462;2023-07-30T11:20:24;25.30;91.10
8463;DHT22;4268;52.506;13.462;2023-07-30T11:22:53;25.30;90.60
8463;DHT22;4268;52.506;13.462;2023-07-30T11:25:19;25.20;90.80
8463;DHT22;4268;52.506;13.462;2023-07-30T11:27:49;24.80;90.20
8463;DHT22;4268;52.506;13.462;2023-07-30T11:30:14;24.70;90.70
8463;DHT22;4268;52.506;13.462;2023-07-30T11:32:42;24.80;91.40
8463;DHT22;4268;52.506;13.462;2023-07-30T11:35:08;24.80;90.50
8463;DHT22;4268;52.506;13.462;2023-07-30T11:37:34;24.80;90.50
8463;DHT22;4268;52.506;13.462;2023-07-30T11:40:04;25.10;89.90
8463;DHT22;4268;52.506;13.462;2023-07-30T11:42:29;25.20;85.50
8463;DHT22;4268;52.506;13.462;2023-07-30T11:44:56;25.20;86.00
8463;DHT22;4268;52.506;13.462;2023-07-30T11:47:22;25.30;82.40
8463;DHT22;4268;52.506;13.462;2023-07-30T11:49:57;25.10;81.10
8463;DHT22;4268;52.506;13.462;2023-07-30T11:52:24;25.00;81.30
8463;DHT22;4268;52.506;13.462;2023-07-30T11:55:03;25.00;81.80
8463;DHT22;4268;52.506;13.462;2023-07-30T11:57:34;25.00;80.90
8463;DHT22;4268;52.506;13.462;2023-07-30T12:00:00;25.10;80.90
8463;DHT22;4268;52.506;13.462;2023-07-30T12:02:27;25.70;80.60
8463;DHT22;4268;52.506;13.462;2023-07-30T12:04:53;25.40;80.30
8463;DHT22;4268;52.506;13.462;2023-07-30T12:07:23;25.50;81.40
8463;DHT22;4268;52.506;13.462;2023-07-30T12:09:49;25.60;79.50
8463;DHT22;4268;52.506;13.462;2023-07-30T12:12:15;25.70;80.20
8463;DHT22;4268;52.506;13.462;2023-07-30T12:17:13;25.70;77.80
8463;DHT22;4268;52.506;13.462;2023-07-30T12:19:38;25.70;79.80
8463;DHT22;4268;52.506;13.462;2023-07-30T12:22:05;25.70;79.90
8463;DHT22;4268;52.506;13.462;2023-07-30T12:24:31;25.80;79.40
8463;DHT22;4268;52.506;13.462;2023-07-30T12:26:57;26.10;79.60
8463;DHT22;4268;52.506;13.462;2023-07-30T12:29:22;25.90;79.60
8463;DHT22;4268;52.506;13.462;2023-07-30T12:31:48;26.00;79.60
8463;DHT22;4268;52.506;13.462;2023-07-30T12:34:15;26.00;77.40
8463;DHT22;4268;52.506;13.462;2023-07-30T12:36:41;26.00;78.30
8463;DHT22;4268;52.506;13.462;2023-07-30T12:39:06;26.10;78.50
8463;DHT22;4268;52.506;13.462;2023-07-30T12:41:33;26.50;78.50
8463;DHT22;4268;52.506;13.462;2023-07-30T12:43:59;26.20;78.00
8463;DHT22;4268;52.506;13.462;2023-07-30T12:46:25;26.10;77.40
8463;DHT22;4268;52.506;13.462;2023-07-30T12:48:55;26.20;77.10
8463;DHT22;4268;52.506;13.462;2023-07-30T12:51:21;26.50;77.80
8463;DHT22;4268;52.506;13.462;2023-07-30T12:53:48;26.20;77.40
8463;DHT22;4268;52.506;13.462;2023-07-30T12:56:14;26.20;78.10
8463;DHT22;4268;52.506;13.462;2023-07-30T12:58:40;26.20;77.90
8463;DHT22;4268;52.506;13.462;2023-07-30T13:01:06;26.20;77.50
8463;DHT22;4268;52.506;13.462;2023-07-30T13:03:32;26.30;77.10
8463;DHT22;4268;52.506;13.462;2023-07-30T13:05:58;26.20;76.90
8463;DHT22;4268;52.506;13.462;2023-07-30T13:08:24;26.10;77.90
8463;DHT22;4268;52.506;13.462;2023-07-30T13:10:50;26.00;77.90
8463;DHT22;4268;52.506;13.462;2023-07-30T13:13:16;26.10;79.00
8463;DHT22;4268;52.506;13.462;2023-07-30T13:15:42;26.20;78.60
8463;DHT22;4268;52.506;13.462;2023-07-30T13:18:07;26.20;77.20
8463;DHT22;4268;52.506;13.462;2023-07-30T13:20:33;26.20;75.50
8463;DHT22;4268;52.506;13.462;2023-07-30T13:22:59;26.20;75.90
8463;DHT22;4268;52.506;13.462;2023-07-30T13:25:25;26.20;75.50
8463;DHT22;4268;52.506;13.462;2023-07-30T13:27:50;26.30;74.80
8463;DHT22;4268;52.506;13.462;2023-07-30T13:30:16;26.30;73.60
8463;DHT22;4268;52.506;13.462;2023-07-30T13:32:41;26.40;72.00
8463;DHT22;4268;52.506;13.462;2023-07-30T13:35:07;26.50;72.30
8463;DHT22;4268;52.506;13.462;2023-07-30T13:37:33;26.60;73.00
8463;DHT22;4268;52.506;13.462;2023-07-30T13:39:59;26.60;72.00
8463;DHT22;4268;52.506;13.462;2023-07-30T13:42:24;26.50;71.80
8463;DHT22;4268;52.506;13.462;2023-07-30T13:44:51;26.50;73.00
8463;DHT22;4268;52.506;13.462;2023-07-30T13:47:17;26.50;73.60
8463;DHT22;4268;52.506;13.462;2023-07-30T13:49:42;26.30;72.80
8463;DHT22;4268;52.506;13.462;2023-07-30T13:52:08;26.30;73.20
8463;DHT22;4268;52.506;13.462;2023-07-30T13:54:33;26.20;71.30
8463;DHT22;4268;52.506;13.462;2023-07-30T13:57:01;26.20;70.30
8463;DHT22;4268;52.506;13.462;2023-07-30T13:59:27;26.10;69.60
8463;DHT22;4268;52.506;13.462;2023-07-30T14:01:52;26.00;68.40
8463;DHT22;4268;52.506;13.462;2023-07-30T14:04:21;25.90;68.50
8463;DHT22;4268;52.506;13.462;2023-07-30T14:06:47;25.80;68.40
8463;DHT22;4268;52.506;13.462;2023-07-30T14:09:13;26.40;69.50
8463;DHT22;4268;52.506;13.462;2023-07-30T14:11:39;25.50;70.30
8463;DHT22;4268;52.506;13.462;2023-07-30T14:14:08;26.50;70.30
8463;DHT22;4268;52.506;13.462;2023-07-30T14:16:33;25.10;69.30
8463;DHT22;4268;52.506;13.462;2023-07-30T14:18:59;25.10;69.70
8463;DHT22;4268;52.506;13.462;2023-07-30T14:21:25;25.00;70.40
8463;DHT22;4268;52.506;13.462;2023-07-30T14:23:51;24.90;71.20
8463;DHT22;4268;52.506;13.462;2023-07-30T14:26:17;24.80;71.70
8463;DHT22;4268;52.506;13.462;2023-07-30T14:28:43;24.80;72.80
8463;DHT22;4268;52.506;13.462;2023-07-30T14:31:09;24.80;73.40
8463;DHT22;4268;52.506;13.462;2023-07-30T14:33:34;24.70;76.00
8463;DHT22;4268;52.506;13.462;2023-07-30T14:36:01;24.60;78.30
8463;DHT22;4268;52.506;13.462;2023-07-30T14:38:28;23.80;78.70
8463;DHT22;4268;52.506;13.462;2023-07-30T14:40:54;24.30;78.30
8463;DHT22;4268;52.506;13.462;2023-07-30T14:43:20;24.10;79.30
8463;DHT22;4268;52.506;13.462;2023-07-30T14:45:46;24.40;80.50
8463;DHT22;4268;52.506;13.462;2023-07-30T14:48:11;23.70;82.40
8463;DHT22;4268;52.506;13.462;2023-07-30T14:50:37;23.50;84.10
8463;DHT22;4268;52.506;13.462;2023-07-30T14:53:02;23.30;84.70
8463;DHT22;4268;52.506;13.462;2023-07-30T14:55:30;23.20;85.90
8463;DHT22;4268;52.506;13.462;2023-07-30T14:57:55;23.10;86.80
8463;DHT22;4268;52.506;13.462;2023-07-30T15:00:21;22.90;86.70
8463;DHT22;4268;52.506;13.462;2023-07-30T15:02:47;22.80;86.50
8463;DHT22;4268;52.506;13.462;2023-07-30T15:05:12;22.60;87.70
8463;DHT22;4268;52.506;13.462;2023-07-30T15:07:38;22.50;88.70
8463;DHT22;4268;52.506;13.462;2023-07-30T15:10:04;22.40;90.80
8463;DHT22;4268;52.506;13.462;2023-07-30T15:12:30;22.20;91.90
8463;DHT22;4268;52.506;13.462;2023-07-30T15:14:55;22.10;92.40
8463;DHT22;4268;52.506;13.462;2023-07-30T15:17:21;22.00;93.50
8463;DHT22;4268;52.506;13.462;2023-07-30T15:19:47;21.80;93.80
8463;DHT22;4268;52.506;13.462;2023-07-30T15:22:13;21.90;94.40
8463;DHT22;4268;52.506;13.462;2023-07-30T15:24:39;21.80;95.20
8463;DHT22;4268;52.506;13.462;2023-07-30T15:27:04;21.90;95.50
8463;DHT22;4268;52.506;13.462;2023-07-30T15:29:30;22.00;95.80
8463;DHT22;4268;52.506;13.462;2023-07-30T15:31:56;22.10;96.00
8463;DHT22;4268;52.506;13.462;2023-07-30T15:34:22;22.20;96.60
8463;DHT22;4268;52.506;13.462;2023-07-30T15:36:48;22.30;96.30
8463;DHT22;4268;52.506;13.462;2023-07-30T15:39:13;22.60;96.10
8463;DHT22;4268;52.506;13.462;2023-07-30T15:41:39;22.40;96.30
8463;DHT22;4268;52.506;13.462;2023-07-30T15:44:05;22.40;96.50